sensor_id;sensor_type;location;lat;lon;timestamp;P1;durP1;ratioP1;P2;durP2;ratioP2
15295;SDS011;7749;49.964;7.890;2023-04-24T00:00:36;2.30;;;1.50;;
15295;SDS011;7749;49.964;7.890;2023-04-24T00:03:22;2.27;;;1.57;;
15295;SDS011;7749;49.964;7.890;2023-04-24T00:06:05;1.80;;;1.40;;
15295;SDS011;7749;49.964;7.890;2023-04-24T00:08:51;1.73;;;1.27;;
15295;SDS011;7749;49.964;7.890;2023-04-24T00:11:34;2.10;;;1.47;;
15295;SDS011;7749;49.964;7.890;2023-04-24T00:14:18;4.13;;;1.70;;
15295;SDS011;7749;49.964;7.890;2023-04-24T00:17:01;1.77;;;1.23;;
15295;SDS011;7749;49.964;7.890;2023-04-24T00:19:44;1.80;;;1.20;;
15295;SDS011;7749;49.964;7.890;2023-04-24T00:22:28;3.33;;;1.40;;
15295;SDS011;7749;49.964;7.890;2023-04-24T00:25:11;2.27;;;1.60;;
15295;SDS011;7749;49.964;7.890;2023-04-24T00:27:54;2.47;;;1.50;;
15295;SDS011;7749;49.964;7.890;2023-04-24T00:30:37;1.43;;;1.33;;
15295;SDS011;7749;49.964;7.890;2023-04-24T00:33:20;2.47;;;1.57;;
15295;SDS011;7749;49.964;7.890;2023-04-24T00:36:03;2.17;;;1.50;;
15295;SDS011;7749;49.964;7.890;2023-04-24T00:38:47;2.70;;;1.40;;
15295;SDS011;7749;49.964;7.890;2023-04-24T00:41:33;3.40;;;1.50;;
15295;SDS011;7749;49.964;7.890;2023-04-24T00:44:17;3.87;;;1.77;;
15295;SDS011;7749;49.964;7.890;2023-04-24T00:47:00;4.03;;;1.50;;
15295;SDS011;7749;49.964;7.890;2023-04-24T00:52:33;2.67;;;1.40;;
15295;SDS011;7749;49.964;7.890;2023-04-24T00:55:04;1.63;;;1.40;;
15295;SDS011;7749;49.964;7.890;2023-04-24T00:57:32;1.63;;;1.20;;
15295;SDS011;7749;49.964;7.890;2023-04-24T01:00:03;3.37;;;1.70;;
15295;SDS011;7749;49.964;7.890;2023-04-24T01:02:33;2.70;;;1.23;;
15295;SDS011;7749;49.964;7.890;2023-04-24T01:05:01;2.10;;;1.50;;
15295;SDS011;7749;49.964;7.890;2023-04-24T01:07:34;3.53;;;1.37;;
15295;SDS011;7749;49.964;7.890;2023-04-24T01:10:03;2.83;;;1.10;;
15295;SDS011;7749;49.964;7.890;2023-04-24T01:12:32;2.03;;;1.50;;
15295;SDS011;7749;49.964;7.890;2023-04-24T01:14:59;3.37;;;1.53;;
15295;SDS011;7749;49.964;7.890;2023-04-24T01:17:28;1.20;;;1.10;;
15295;SDS011;7749;49.964;7.890;2023-04-24T01:19:55;3.27;;;1.90;;
15295;SDS011;7749;49.964;7.890;2023-04-24T01:22:24;3.07;;;1.30;;
15295;SDS011;7749;49.964;7.890;2023-04-24T01:24:53;4.60;;;1.13;;
15295;SDS011;7749;49.964;7.890;2023-04-24T01:27:22;3.10;;;0.97;;
15295;SDS011;7749;49.964;7.890;2023-04-24T01:29:52;1.47;;;1.07;;
15295;SDS011;7749;49.964;7.890;2023-04-24T01:32:23;2.87;;;1.10;;
15295;SDS011;7749;49.964;7.890;2023-04-24T01:34:52;4.90;;;1.30;;
15295;SDS011;7749;49.964;7.890;2023-04-24T01:37:19;3.97;;;1.40;;
15295;SDS011;7749;49.964;7.890;2023-04-24T01:39:47;1.33;;;1.00;;
15295;SDS011;7749;49.964;7.890;2023-04-24T01:42:18;2.13;;;1.20;;
15295;SDS011;7749;49.964;7.890;2023-04-24T01:44:46;1.70;;;1.30;;
15295;SDS011;7749;49.964;7.890;2023-04-24T01:47:14;2.63;;;1.43;;
15295;SDS011;7749;49.964;7.890;2023-04-24T01:49:42;2.23;;;1.30;;
15295;SDS011;7749;49.964;7.890;2023-04-24T01:52:10;2.10;;;1.10;;
15295;SDS011;7749;49.964;7.890;2023-04-24T01:54:39;1.20;;;1.07;;
15295;SDS011;7749;49.964;7.890;2023-04-24T01:57:07;2.27;;;1.13;;
15295;SDS011;7749;49.964;7.890;2023-04-24T01:59:38;1.33;;;1.00;;
15295;SDS011;7749;49.964;7.890;2023-04-24T02:02:09;3.03;;;1.30;;
15295;SDS011;7749;49.964;7.890;2023-04-24T02:04:37;2.87;;;1.10;;
15295;SDS011;7749;49.964;7.890;2023-04-24T02:07:08;2.10;;;0.97;;
15295;SDS011;7749;49.964;7.890;2023-04-24T02:09:45;2.00;;;1.20;;
15295;SDS011;7749;49.964;7.890;2023-04-24T02:12:17;1.73;;;1.10;;
15295;SDS011;7749;49.964;7.890;2023-04-24T02:14:45;1.33;;;0.93;;
15295;SDS011;7749;49.964;7.890;2023-04-24T02:17:12;0.80;;;0.80;;
15295;SDS011;7749;49.964;7.890;2023-04-24T02:19:43;1.17;;;1.00;;
15295;SDS011;7749;49.964;7.890;2023-04-24T02:22:11;1.77;;;1.00;;
15295;SDS011;7749;49.964;7.890;2023-04-24T02:24:39;1.73;;;0.90;;
15295;SDS011;7749;49.964;7.890;2023-04-24T02:27:07;0.90;;;0.90;;
15295;SDS011;7749;49.964;7.890;2023-04-24T02:29:35;0.80;;;0.80;;
15295;SDS011;7749;49.964;7.890;2023-04-24T02:32:06;1.73;;;0.70;;
15295;SDS011;7749;49.964;7.890;2023-04-24T02:34:34;1.00;;;0.80;;
15295;SDS011;7749;49.964;7.890;2023-04-24T02:37:02;1.90;;;0.80;;
15295;SDS011;7749;49.964;7.890;2023-04-24T02:39:30;1.33;;;1.00;;
15295;SDS011;7749;49.964;7.890;2023-04-24T02:41:58;3.00;;;0.90;;
15295;SDS011;7749;49.964;7.890;2023-04-24T02:44:28;0.80;;;0.80;;
15295;SDS011;7749;49.964;7.890;2023-04-24T02:46:56;0.80;;;0.80;;
15295;SDS011;7749;49.964;7.890;2023-04-24T02:49:24;0.80;;;0.80;;
15295;SDS011;7749;49.964;7.890;2023-04-24T02:51:51;3.23;;;0.90;;
15295;SDS011;7749;49.964;7.890;2023-04-24T02:54:19;2.53;;;1.23;;
15295;SDS011;7749;49.964;7.890;2023-04-24T02:56:47;1.40;;;0.87;;
15295;SDS011;7749;49.964;7.890;2023-04-24T02:59:18;0.70;;;0.70;;
15295;SDS011;7749;49.964;7.890;2023-04-24T03:01:46;1.07;;;1.00;;
15295;SDS011;7749;49.964;7.890;2023-04-24T03:04:13;1.03;;;0.90;;
15295;SDS011;7749;49.964;7.890;2023-04-24T03:06:43;1.80;;;0.93;;
15295;SDS011;7749;49.964;7.890;2023-04-24T03:09:10;2.20;;;0.93;;
15295;SDS011;7749;49.964;7.890;2023-04-24T03:11:38;1.43;;;1.20;;
15295;SDS011;7749;49.964;7.890;2023-04-24T03:14:06;2.00;;;1.50;;
15295;SDS011;7749;49.964;7.890;2023-04-24T03:16:37;1.60;;;1.33;;
15295;SDS011;7749;49.964;7.890;2023-04-24T03:19:05;2.27;;;1.50;;
15295;SDS011;7749;49.964;7.890;2023-04-24T03:21:33;3.90;;;3.10;;
15295;SDS011;7749;49.964;7.890;2023-04-24T03:24:02;3.27;;;2.13;;
15295;SDS011;7749;49.964;7.890;2023-04-24T03:26:30;2.00;;;1.67;;
15295;SDS011;7749;49.964;7.890;2023-04-24T03:28:58;3.03;;;1.70;;
15295;SDS011;7749;49.964;7.890;2023-04-24T03:31:26;3.30;;;2.30;;
15295;SDS011;7749;49.964;7.890;2023-04-24T03:33:54;3.43;;;1.67;;
15295;SDS011;7749;49.964;7.890;2023-04-24T03:36:22;6.53;;;3.10;;
15295;SDS011;7749;49.964;7.890;2023-04-24T03:38:51;3.43;;;2.63;;
15295;SDS011;7749;49.964;7.890;2023-04-24T03:41:21;2.33;;;2.13;;
15295;SDS011;7749;49.964;7.890;2023-04-24T03:43:50;2.77;;;2.40;;
15295;SDS011;7749;49.964;7.890;2023-04-24T03:46:18;1.60;;;1.50;;
15295;SDS011;7749;49.964;7.890;2023-04-24T03:48:46;2.23;;;1.70;;
15295;SDS011;7749;49.964;7.890;2023-04-24T03:51:14;2.47;;;1.80;;
15295;SDS011;7749;49.964;7.890;2023-04-24T03:53:42;4.80;;;2.13;;
15295;SDS011;7749;49.964;7.890;2023-04-24T03:56:09;2.20;;;1.90;;
15295;SDS011;7749;49.964;7.890;2023-04-24T03:58:40;1.90;;;1.70;;
15295;SDS011;7749;49.964;7.890;2023-04-24T04:01:08;3.03;;;2.17;;
15295;SDS011;7749;49.964;7.890;2023-04-24T04:03:36;2.87;;;1.57;;
15295;SDS011;7749;49.964;7.890;2023-04-24T04:06:04;2.63;;;1.80;;
15295;SDS011;7749;49.964;7.890;2023-04-24T04:08:32;2.67;;;1.77;;
15295;SDS011;7749;49.964;7.890;2023-04-24T04:11:03;1.90;;;1.73;;
15295;SDS011;7749;49.964;7.890;2023-04-24T04:13:31;4.23;;;2.20;;
15295;SDS011;7749;49.964;7.890;2023-04-24T04:15:59;2.30;;;2.00;;
15295;SDS011;7749;49.964;7.890;2023-04-24T04:18:33;2.60;;;1.70;;
15295;SDS011;7749;49.964;7.890;2023-04-24T04:21:01;1.60;;;1.50;;
15295;SDS011;7749;49.964;7.890;2023-04-24T04:23:29;2.73;;;2.10;;
15295;SDS011;7749;49.964;7.890;2023-04-24T04:25:57;2.70;;;1.90;;
15295;SDS011;7749;49.964;7.890;2023-04-24T04:28:26;2.37;;;2.17;;
15295;SDS011;7749;49.964;7.890;2023-04-24T04:30:54;3.33;;;2.30;;
15295;SDS011;7749;49.964;7.890;2023-04-24T04:33:22;3.50;;;2.50;;
15295;SDS011;7749;49.964;7.890;2023-04-24T04:35:54;3.67;;;2.60;;
15295;SDS011;7749;49.964;7.890;2023-04-24T04:38:24;4.23;;;3.00;;
15295;SDS011;7749;49.964;7.890;2023-04-24T04:40:53;4.30;;;2.60;;
15295;SDS011;7749;49.964;7.890;2023-04-24T04:43:26;3.43;;;2.80;;
15295;SDS011;7749;49.964;7.890;2023-04-24T04:45:57;3.53;;;3.10;;
15295;SDS011;7749;49.964;7.890;2023-04-24T04:48:25;4.00;;;2.73;;
15295;SDS011;7749;49.964;7.890;2023-04-24T04:50:54;3.90;;;2.60;;
15295;SDS011;7749;49.964;7.890;2023-04-24T04:53:22;4.10;;;2.80;;
15295;SDS011;7749;49.964;7.890;2023-04-24T04:55:50;3.20;;;2.80;;
15295;SDS011;7749;49.964;7.890;2023-04-24T04:58:17;3.30;;;3.00;;
15295;SDS011;7749;49.964;7.890;2023-04-24T05:00:45;3.40;;;2.80;;
15295;SDS011;7749;49.964;7.890;2023-04-24T05:03:13;5.43;;;3.07;;
15295;SDS011;7749;49.964;7.890;2023-04-24T05:05:47;6.77;;;4.20;;
15295;SDS011;7749;49.964;7.890;2023-04-24T05:08:16;5.30;;;3.50;;
15295;SDS011;7749;49.964;7.890;2023-04-24T05:10:54;5.10;;;3.63;;
15295;SDS011;7749;49.964;7.890;2023-04-24T05:13:22;3.50;;;3.20;;
15295;SDS011;7749;49.964;7.890;2023-04-24T05:16:04;7.57;;;3.37;;
15295;SDS011;7749;49.964;7.890;2023-04-24T05:18:35;9.60;;;4.10;;
15295;SDS011;7749;49.964;7.890;2023-04-24T05:21:03;5.37;;;3.17;;
15295;SDS011;7749;49.964;7.890;2023-04-24T05:23:31;3.27;;;2.83;;
15295;SDS011;7749;49.964;7.890;2023-04-24T05:25:58;4.70;;;3.07;;
15295;SDS011;7749;49.964;7.890;2023-04-24T05:28:32;3.07;;;2.87;;
15295;SDS011;7749;49.964;7.890;2023-04-24T05:31:03;3.93;;;3.17;;
15295;SDS011;7749;49.964;7.890;2023-04-24T05:33:36;3.67;;;2.70;;
15295;SDS011;7749;49.964;7.890;2023-04-24T05:36:05;4.87;;;3.00;;
15295;SDS011;7749;49.964;7.890;2023-04-24T05:38:33;3.20;;;2.87;;
15295;SDS011;7749;49.964;7.890;2023-04-24T05:41:01;4.00;;;3.17;;
15295;SDS011;7749;49.964;7.890;2023-04-24T05:43:31;6.20;;;3.10;;
15295;SDS011;7749;49.964;7.890;2023-04-24T05:45:59;4.03;;;3.17;;
15295;SDS011;7749;49.964;7.890;2023-04-24T05:48:27;4.13;;;3.70;;
15295;SDS011;7749;49.964;7.890;2023-04-24T05:50:54;3.53;;;3.00;;
15295;SDS011;7749;49.964;7.890;2023-04-24T05:53:22;3.87;;;2.83;;
15295;SDS011;7749;49.964;7.890;2023-04-24T05:55:51;3.30;;;2.83;;
15295;SDS011;7749;49.964;7.890;2023-04-24T05:58:19;3.30;;;2.67;;
15295;SDS011;7749;49.964;7.890;2023-04-24T06:00:46;4.53;;;3.53;;
15295;SDS011;7749;49.964;7.890;2023-04-24T06:03:14;3.10;;;2.80;;
15295;SDS011;7749;49.964;7.890;2023-04-24T06:05:45;3.47;;;2.70;;
15295;SDS011;7749;49.964;7.890;2023-04-24T06:08:13;2.40;;;2.20;;
15295;SDS011;7749;49.964;7.890;2023-04-24T06:10:41;3.93;;;2.83;;
15295;SDS011;7749;49.964;7.890;2023-04-24T06:13:08;3.57;;;2.83;;
15295;SDS011;7749;49.964;7.890;2023-04-24T06:15:36;2.23;;;2.10;;
15295;SDS011;7749;49.964;7.890;2023-04-24T06:18:04;3.13;;;2.37;;
15295;SDS011;7749;49.964;7.890;2023-04-24T06:20:31;2.73;;;2.40;;
15295;SDS011;7749;49.964;7.890;2023-04-24T06:22:59;2.33;;;2.13;;
15295;SDS011;7749;49.964;7.890;2023-04-24T06:25:27;2.90;;;2.43;;
15295;SDS011;7749;49.964;7.890;2023-04-24T06:27:55;3.73;;;2.37;;
15295;SDS011;7749;49.964;7.890;2023-04-24T06:30:26;2.70;;;2.50;;
15295;SDS011;7749;49.964;7.890;2023-04-24T06:32:55;5.33;;;2.30;;
15295;SDS011;7749;49.964;7.890;2023-04-24T06:35:35;4.30;;;2.37;;
15295;SDS011;7749;49.964;7.890;2023-04-24T06:38:03;2.47;;;2.27;;
15295;SDS011;7749;49.964;7.890;2023-04-24T06:40:31;6.33;;;2.20;;
15295;SDS011;7749;49.964;7.890;2023-04-24T06:42:59;2.83;;;2.23;;
15295;SDS011;7749;49.964;7.890;2023-04-24T06:45:29;6.93;;;5.50;;
15295;SDS011;7749;49.964;7.890;2023-04-24T06:47:57;2.40;;;2.17;;
15295;SDS011;7749;49.964;7.890;2023-04-24T06:50:25;2.37;;;2.10;;
15295;SDS011;7749;49.964;7.890;2023-04-24T06:52:53;2.50;;;2.30;;
15295;SDS011;7749;49.964;7.890;2023-04-24T06:55:20;3.50;;;2.00;;
15295;SDS011;7749;49.964;7.890;2023-04-24T06:57:48;1.90;;;1.80;;
15295;SDS011;7749;49.964;7.890;2023-04-24T07:00:16;3.50;;;2.17;;
15295;SDS011;7749;49.964;7.890;2023-04-24T07:02:43;2.23;;;2.03;;
15295;SDS011;7749;49.964;7.890;2023-04-24T07:05:11;2.73;;;2.40;;
15295;SDS011;7749;49.964;7.890;2023-04-24T07:07:39;2.60;;;2.40;;
15295;SDS011;7749;49.964;7.890;2023-04-24T07:10:07;3.53;;;2.97;;
15295;SDS011;7749;49.964;7.890;2023-04-24T07:12:35;2.80;;;2.17;;
15295;SDS011;7749;49.964;7.890;2023-04-24T07:15:05;2.50;;;2.10;;
15295;SDS011;7749;49.964;7.890;2023-04-24T07:17:33;4.97;;;2.50;;
15295;SDS011;7749;49.964;7.890;2023-04-24T07:20:02;2.67;;;2.13;;
15295;SDS011;7749;49.964;7.890;2023-04-24T07:22:31;2.60;;;2.17;;
15295;SDS011;7749;49.964;7.890;2023-04-24T07:24:58;4.07;;;2.00;;
15295;SDS011;7749;49.964;7.890;2023-04-24T07:27:26;3.03;;;2.30;;
15295;SDS011;7749;49.964;7.890;2023-04-24T07:29:54;2.97;;;2.53;;
15295;SDS011;7749;49.964;7.890;2023-04-24T07:32:21;3.40;;;3.10;;
15295;SDS011;7749;49.964;7.890;2023-04-24T07:34:49;3.77;;;2.40;;
15295;SDS011;7749;49.964;7.890;2023-04-24T07:37:17;2.60;;;2.40;;
15295;SDS011;7749;49.964;7.890;2023-04-24T07:39:45;2.73;;;2.00;;
15295;SDS011;7749;49.964;7.890;2023-04-24T07:42:13;3.50;;;2.97;;
15295;SDS011;7749;49.964;7.890;2023-04-24T07:44:40;5.13;;;2.70;;
15295;SDS011;7749;49.964;7.890;2023-04-24T07:47:08;3.00;;;2.60;;
15295;SDS011;7749;49.964;7.890;2023-04-24T07:49:36;2.60;;;2.40;;
15295;SDS011;7749;49.964;7.890;2023-04-24T07:52:03;3.17;;;2.33;;
15295;SDS011;7749;49.964;7.890;2023-04-24T07:54:31;3.57;;;2.60;;
15295;SDS011;7749;49.964;7.890;2023-04-24T07:56:59;3.90;;;2.40;;
15295;SDS011;7749;49.964;7.890;2023-04-24T07:59:27;2.70;;;2.50;;
15295;SDS011;7749;49.964;7.890;2023-04-24T08:01:55;2.93;;;2.60;;
15295;SDS011;7749;49.964;7.890;2023-04-24T08:04:23;2.97;;;2.67;;
15295;SDS011;7749;49.964;7.890;2023-04-24T08:06:51;2.50;;;2.30;;
15295;SDS011;7749;49.964;7.890;2023-04-24T08:09:18;2.93;;;2.13;;
15295;SDS011;7749;49.964;7.890;2023-04-24T08:11:46;2.60;;;2.40;;
15295;SDS011;7749;49.964;7.890;2023-04-24T08:14:14;2.30;;;2.10;;
15295;SDS011;7749;49.964;7.890;2023-04-24T08:16:42;4.37;;;2.73;;
15295;SDS011;7749;49.964;7.890;2023-04-24T08:19:10;3.67;;;2.43;;
15295;SDS011;7749;49.964;7.890;2023-04-24T08:21:41;2.43;;;2.20;;
15295;SDS011;7749;49.964;7.890;2023-04-24T08:24:08;3.33;;;2.53;;
15295;SDS011;7749;49.964;7.890;2023-04-24T08:26:36;2.10;;;2.00;;
15295;SDS011;7749;49.964;7.890;2023-04-24T08:29:04;2.57;;;2.27;;
15295;SDS011;7749;49.964;7.890;2023-04-24T08:31:36;3.13;;;2.20;;
15295;SDS011;7749;49.964;7.890;2023-04-24T08:34:04;2.83;;;2.27;;
15295;SDS011;7749;49.964;7.890;2023-04-24T08:36:31;2.60;;;2.40;;
15295;SDS011;7749;49.964;7.890;2023-04-24T08:39:13;3.60;;;2.30;;
15295;SDS011;7749;49.964;7.890;2023-04-24T08:41:42;2.20;;;2.00;;
15295;SDS011;7749;49.964;7.890;2023-04-24T08:44:10;2.87;;;2.03;;
15295;SDS011;7749;49.964;7.890;2023-04-24T08:46:40;2.57;;;1.90;;
15295;SDS011;7749;49.964;7.890;2023-04-24T08:49:08;3.07;;;2.17;;
15295;SDS011;7749;49.964;7.890;2023-04-24T08:51:36;1.77;;;1.67;;
15295;SDS011;7749;49.964;7.890;2023-04-24T08:54:04;1.87;;;1.73;;
15295;SDS011;7749;49.964;7.890;2023-04-24T08:56:34;1.90;;;1.80;;
15295;SDS011;7749;49.964;7.890;2023-04-24T08:59:06;2.00;;;1.70;;
15295;SDS011;7749;49.964;7.890;2023-04-24T09:01:34;1.80;;;1.70;;
15295;SDS011;7749;49.964;7.890;2023-04-24T09:04:04;2.77;;;1.73;;
15295;SDS011;7749;49.964;7.890;2023-04-24T09:06:35;1.53;;;1.40;;
15295;SDS011;7749;49.964;7.890;2023-04-24T09:09:06;1.60;;;1.50;;
15295;SDS011;7749;49.964;7.890;2023-04-24T09:11:35;1.47;;;1.30;;
15295;SDS011;7749;49.964;7.890;2023-04-24T09:14:04;2.27;;;1.50;;
15295;SDS011;7749;49.964;7.890;2023-04-24T09:16:41;2.47;;;1.53;;
15295;SDS011;7749;49.964;7.890;2023-04-24T09:19:09;1.87;;;1.40;;
15295;SDS011;7749;49.964;7.890;2023-04-24T09:21:37;1.50;;;1.40;;
15295;SDS011;7749;49.964;7.890;2023-04-24T09:24:05;1.33;;;1.23;;
15295;SDS011;7749;49.964;7.890;2023-04-24T09:26:35;1.50;;;1.40;;
15295;SDS011;7749;49.964;7.890;2023-04-24T09:29:03;1.63;;;1.43;;
15295;SDS011;7749;49.964;7.890;2023-04-24T09:31:32;1.40;;;1.30;;
15295;SDS011;7749;49.964;7.890;2023-04-24T09:34:00;3.00;;;1.77;;
15295;SDS011;7749;49.964;7.890;2023-04-24T09:36:37;1.97;;;1.30;;
15295;SDS011;7749;49.964;7.890;2023-04-24T09:39:10;1.57;;;1.10;;
15295;SDS011;7749;49.964;7.890;2023-04-24T09:41:45;2.30;;;1.20;;
15295;SDS011;7749;49.964;7.890;2023-04-24T09:44:20;1.70;;;1.40;;
15295;SDS011;7749;49.964;7.890;2023-04-24T09:46:51;1.67;;;1.20;;
15295;SDS011;7749;49.964;7.890;2023-04-24T09:49:26;1.67;;;1.53;;
15295;SDS011;7749;49.964;7.890;2023-04-24T09:52:05;1.57;;;1.47;;
15295;SDS011;7749;49.964;7.890;2023-04-24T09:54:33;1.30;;;1.20;;
15295;SDS011;7749;49.964;7.890;2023-04-24T09:57:03;2.00;;;1.13;;
15295;SDS011;7749;49.964;7.890;2023-04-24T09:59:31;0.93;;;0.93;;
15295;SDS011;7749;49.964;7.890;2023-04-24T10:02:02;1.47;;;1.17;;
15295;SDS011;7749;49.964;7.890;2023-04-24T10:04:53;1.20;;;1.10;;
15295;SDS011;7749;49.964;7.890;2023-04-24T10:07:27;0.90;;;0.90;;
15295;SDS011;7749;49.964;7.890;2023-04-24T10:09:55;1.37;;;1.27;;
15295;SDS011;7749;49.964;7.890;2023-04-24T10:12:23;1.63;;;1.10;;
15295;SDS011;7749;49.964;7.890;2023-04-24T10:14:52;2.10;;;1.50;;
15295;SDS011;7749;49.964;7.890;2023-04-24T10:17:21;1.93;;;1.30;;
15295;SDS011;7749;49.964;7.890;2023-04-24T10:19:51;3.67;;;1.90;;
15295;SDS011;7749;49.964;7.890;2023-04-24T10:22:18;1.83;;;1.73;;
15295;SDS011;7749;49.964;7.890;2023-04-24T10:24:48;4.17;;;2.30;;
15295;SDS011;7749;49.964;7.890;2023-04-24T10:27:17;2.67;;;1.80;;
15295;SDS011;7749;49.964;7.890;2023-04-24T10:29:50;2.20;;;2.00;;
15295;SDS011;7749;49.964;7.890;2023-04-24T10:32:20;1.90;;;1.70;;
15295;SDS011;7749;49.964;7.890;2023-04-24T10:34:47;1.53;;;1.43;;
15295;SDS011;7749;49.964;7.890;2023-04-24T10:37:15;1.40;;;1.27;;
15295;SDS011;7749;49.964;7.890;2023-04-24T10:39:46;1.40;;;1.13;;
15295;SDS011;7749;49.964;7.890;2023-04-24T10:42:15;2.80;;;1.43;;
15295;SDS011;7749;49.964;7.890;2023-04-24T10:44:43;1.40;;;1.30;;
15295;SDS011;7749;49.964;7.890;2023-04-24T10:47:15;2.40;;;1.70;;
15295;SDS011;7749;49.964;7.890;2023-04-24T10:49:42;3.23;;;1.80;;
15295;SDS011;7749;49.964;7.890;2023-04-24T10:52:10;1.90;;;1.80;;
15295;SDS011;7749;49.964;7.890;2023-04-24T10:54:44;2.00;;;1.90;;
15295;SDS011;7749;49.964;7.890;2023-04-24T11:00:09;1.70;;;1.50;;
15295;SDS011;7749;49.964;7.890;2023-04-24T11:02:48;1.93;;;1.43;;
15295;SDS011;7749;49.964;7.890;2023-04-24T11:05:18;3.53;;;2.17;;
15295;SDS011;7749;49.964;7.890;2023-04-24T11:10:50;2.17;;;1.50;;
15295;SDS011;7749;49.964;7.890;2023-04-24T11:13:24;2.03;;;1.60;;
15295;SDS011;7749;49.964;7.890;2023-04-24T11:18:44;2.90;;;1.57;;
15295;SDS011;7749;49.964;7.890;2023-04-24T11:21:18;1.77;;;1.60;;
15295;SDS011;7749;49.964;7.890;2023-04-24T11:23:45;2.10;;;1.90;;
15295;SDS011;7749;49.964;7.890;2023-04-24T11:26:18;2.10;;;1.88;;
15295;SDS011;7749;49.964;7.890;2023-04-24T11:28:49;3.15;;;1.98;;
15295;SDS011;7749;49.964;7.890;2023-04-24T11:31:39;2.70;;;1.92;;
15295;SDS011;7749;49.964;7.890;2023-04-24T11:37:36;2.45;;;1.80;;
15295;SDS011;7749;49.964;7.890;2023-04-24T11:40:17;3.10;;;2.55;;
15295;SDS011;7749;49.964;7.890;2023-04-24T11:43:10;3.25;;;2.42;;
15295;SDS011;7749;49.964;7.890;2023-04-24T11:45:47;3.13;;;1.80;;
15295;SDS011;7749;49.964;7.890;2023-04-24T11:48:22;3.50;;;2.30;;
15295;SDS011;7749;49.964;7.890;2023-04-24T11:50:53;3.77;;;2.30;;
15295;SDS011;7749;49.964;7.890;2023-04-24T11:53:22;4.00;;;2.30;;
15295;SDS011;7749;49.964;7.890;2023-04-24T11:55:50;4.80;;;2.33;;
15295;SDS011;7749;49.964;7.890;2023-04-24T11:58:21;6.13;;;2.20;;
15295;SDS011;7749;49.964;7.890;2023-04-24T12:01:04;5.40;;;2.50;;
15295;SDS011;7749;49.964;7.890;2023-04-24T12:03:35;4.07;;;2.90;;
15295;SDS011;7749;49.964;7.890;2023-04-24T12:09:05;3.37;;;2.60;;
15295;SDS011;7749;49.964;7.890;2023-04-24T12:18:54;4.27;;;3.10;;
15295;SDS011;7749;49.964;7.890;2023-04-24T12:21:24;4.00;;;2.90;;
15295;SDS011;7749;49.964;7.890;2023-04-24T12:23:57;5.33;;;3.30;;
15295;SDS011;7749;49.964;7.890;2023-04-24T12:26:25;3.93;;;3.20;;
15295;SDS011;7749;49.964;7.890;2023-04-24T12:28:54;4.57;;;3.13;;
15295;SDS011;7749;49.964;7.890;2023-04-24T12:31:24;5.17;;;3.13;;
15295;SDS011;7749;49.964;7.890;2023-04-24T12:33:53;3.50;;;3.00;;
15295;SDS011;7749;49.964;7.890;2023-04-24T12:36:22;4.70;;;3.00;;
15295;SDS011;7749;49.964;7.890;2023-04-24T12:38:53;3.13;;;2.80;;
15295;SDS011;7749;49.964;7.890;2023-04-24T12:41:21;3.60;;;2.90;;
15295;SDS011;7749;49.964;7.890;2023-04-24T12:43:52;4.77;;;2.87;;
15295;SDS011;7749;49.964;7.890;2023-04-24T12:46:20;4.17;;;3.10;;
15295;SDS011;7749;49.964;7.890;2023-04-24T12:48:49;3.47;;;3.00;;
15295;SDS011;7749;49.964;7.890;2023-04-24T12:51:17;3.73;;;3.40;;
15295;SDS011;7749;49.964;7.890;2023-04-24T12:53:46;4.00;;;3.60;;
15295;SDS011;7749;49.964;7.890;2023-04-24T12:56:14;3.40;;;3.10;;
15295;SDS011;7749;49.964;7.890;2023-04-24T12:58:41;5.27;;;2.80;;
15295;SDS011;7749;49.964;7.890;2023-04-24T13:01:09;3.28;;;2.65;;
15295;SDS011;7749;49.964;7.890;2023-04-24T13:03:37;3.42;;;2.38;;
15295;SDS011;7749;49.964;7.890;2023-04-24T13:06:05;4.20;;;2.65;;
15295;SDS011;7749;49.964;7.890;2023-04-24T13:08:33;3.72;;;2.40;;
15295;SDS011;7749;49.964;7.890;2023-04-24T13:11:03;3.35;;;2.67;;
15295;SDS011;7749;49.964;7.890;2023-04-24T13:13:31;2.80;;;2.60;;
15295;SDS011;7749;49.964;7.890;2023-04-24T13:15:59;3.83;;;2.50;;
15295;SDS011;7749;49.964;7.890;2023-04-24T13:18:27;4.47;;;2.93;;
15295;SDS011;7749;49.964;7.890;2023-04-24T13:20:57;5.60;;;3.20;;
15295;SDS011;7749;49.964;7.890;2023-04-24T13:23:25;4.93;;;2.97;;
15295;SDS011;7749;49.964;7.890;2023-04-24T13:25:53;4.80;;;3.57;;
15295;SDS011;7749;49.964;7.890;2023-04-24T13:28:24;6.30;;;3.00;;
15295;SDS011;7749;49.964;7.890;2023-04-24T13:30:52;5.83;;;3.07;;
15295;SDS011;7749;49.964;7.890;2023-04-24T13:33:20;3.20;;;2.90;;
15295;SDS011;7749;49.964;7.890;2023-04-24T13:35:48;4.37;;;3.20;;
15295;SDS011;7749;49.964;7.890;2023-04-24T13:38:16;3.67;;;3.37;;
15295;SDS011;7749;49.964;7.890;2023-04-24T13:40:44;4.83;;;3.17;;
15295;SDS011;7749;49.964;7.890;2023-04-24T13:43:12;5.27;;;3.50;;
15295;SDS011;7749;49.964;7.890;2023-04-24T13:45:40;4.53;;;3.00;;
15295;SDS011;7749;49.964;7.890;2023-04-24T13:48:10;6.73;;;3.27;;
15295;SDS011;7749;49.964;7.890;2023-04-24T13:50:38;4.60;;;3.30;;
15295;SDS011;7749;49.964;7.890;2023-04-24T13:53:05;3.70;;;3.00;;
15295;SDS011;7749;49.964;7.890;2023-04-24T13:55:33;3.35;;;3.05;;
15295;SDS011;7749;49.964;7.890;2023-04-24T13:58:04;3.38;;;3.05;;
15295;SDS011;7749;49.964;7.890;2023-04-24T14:00:32;3.90;;;3.17;;
15295;SDS011;7749;49.964;7.890;2023-04-24T14:03:00;5.13;;;2.70;;
15295;SDS011;7749;49.964;7.890;2023-04-24T14:05:28;3.90;;;2.77;;
15295;SDS011;7749;49.964;7.890;2023-04-24T14:07:55;4.40;;;2.90;;
15295;SDS011;7749;49.964;7.890;2023-04-24T14:10:23;4.27;;;2.90;;
15295;SDS011;7749;49.964;7.890;2023-04-24T14:12:52;3.47;;;2.80;;
15295;SDS011;7749;49.964;7.890;2023-04-24T14:15:20;4.83;;;3.20;;
15295;SDS011;7749;49.964;7.890;2023-04-24T14:17:48;3.23;;;2.93;;
15295;SDS011;7749;49.964;7.890;2023-04-24T14:20:17;3.30;;;2.80;;
15295;SDS011;7749;49.964;7.890;2023-04-24T14:22:47;4.87;;;3.37;;
15295;SDS011;7749;49.964;7.890;2023-04-24T14:25:15;4.93;;;2.60;;
15295;SDS011;7749;49.964;7.890;2023-04-24T14:27:43;3.97;;;2.88;;
15295;SDS011;7749;49.964;7.890;2023-04-24T14:30:11;3.22;;;2.78;;
15295;SDS011;7749;49.964;7.890;2023-04-24T14:32:39;3.95;;;3.00;;
15295;SDS011;7749;49.964;7.890;2023-04-24T14:35:07;3.08;;;2.50;;
15295;SDS011;7749;49.964;7.890;2023-04-24T14:37:36;3.97;;;2.53;;
15295;SDS011;7749;49.964;7.890;2023-04-24T14:40:04;5.13;;;3.47;;
15295;SDS011;7749;49.964;7.890;2023-04-24T14:42:55;3.83;;;3.13;;
15295;SDS011;7749;49.964;7.890;2023-04-24T14:45:25;3.73;;;3.20;;
15295;SDS011;7749;49.964;7.890;2023-04-24T14:47:53;4.20;;;2.80;;
15295;SDS011;7749;49.964;7.890;2023-04-24T14:50:22;6.47;;;2.80;;
15295;SDS011;7749;49.964;7.890;2023-04-24T14:52:51;4.20;;;2.78;;
15295;SDS011;7749;49.964;7.890;2023-04-24T14:55:18;4.27;;;2.90;;
15295;SDS011;7749;49.964;7.890;2023-04-24T14:57:46;6.37;;;3.17;;
15295;SDS011;7749;49.964;7.890;2023-04-24T15:00:17;3.33;;;3.00;;
15295;SDS011;7749;49.964;7.890;2023-04-24T15:02:45;3.63;;;3.10;;
15295;SDS011;7749;49.964;7.890;2023-04-24T15:05:13;5.65;;;3.40;;
15295;SDS011;7749;49.964;7.890;2023-04-24T15:07:42;3.92;;;2.80;;
15295;SDS011;7749;49.964;7.890;2023-04-24T15:10:20;5.27;;;3.40;;
15295;SDS011;7749;49.964;7.890;2023-04-24T15:12:59;4.50;;;3.00;;
15295;SDS011;7749;49.964;7.890;2023-04-24T15:15:27;4.30;;;3.00;;
15295;SDS011;7749;49.964;7.890;2023-04-24T15:17:55;3.87;;;3.07;;
15295;SDS011;7749;49.964;7.890;2023-04-24T15:20:23;3.70;;;3.30;;
15295;SDS011;7749;49.964;7.890;2023-04-24T15:22:53;3.20;;;2.90;;
15295;SDS011;7749;49.964;7.890;2023-04-24T15:25:21;4.13;;;3.00;;
15295;SDS011;7749;49.964;7.890;2023-04-24T15:27:49;4.80;;;3.07;;
15295;SDS011;7749;49.964;7.890;2023-04-24T15:30:17;3.70;;;3.20;;
15295;SDS011;7749;49.964;7.890;2023-04-24T15:32:45;9.37;;;6.60;;
15295;SDS011;7749;49.964;7.890;2023-04-24T15:35:13;3.77;;;3.27;;
15295;SDS011;7749;49.964;7.890;2023-04-24T15:37:44;5.30;;;4.70;;
15295;SDS011;7749;49.964;7.890;2023-04-24T15:40:12;4.50;;;3.70;;
15295;SDS011;7749;49.964;7.890;2023-04-24T15:42:44;3.43;;;2.90;;